sensor_id;sensor_type;location;lat;lon;timestamp;P1;durP1;ratioP1;P2;durP2;ratioP2
35257;SDS011;21385;50.878;8.050;2023-04-01T00:00:21;1.35;;;0.52;;
35257;SDS011;21385;50.878;8.050;2023-04-01T00:02:47;1.85;;;0.75;;
35257;SDS011;21385;50.878;8.050;2023-04-01T00:05:13;0.25;;;0.25;;
35257;SDS011;21385;50.878;8.050;2023-04-01T00:07:39;3.03;;;0.93;;
35257;SDS011;21385;50.878;8.050;2023-04-01T00:10:06;0.57;;;0.57;;
35257;SDS011;21385;50.878;8.050;2023-04-01T00:12:34;0.43;;;0.43;;
35257;SDS011;21385;50.878;8.050;2023-04-01T00:14:59;0.75;;;0.45;;
35257;SDS011;21385;50.878;8.050;2023-04-01T00:17:25;3.78;;;0.70;;
35257;SDS011;21385;50.878;8.050;2023-04-01T00:19:51;1.05;;;0.60;;
35257;SDS011;21385;50.878;8.050;2023-04-01T00:22:16;1.38;;;0.50;;
35257;SDS011;21385;50.878;8.050;2023-04-01T00:24:42;5.40;;;1.02;;
35257;SDS011;21385;50.878;8.050;2023-04-01T00:27:07;1.23;;;0.90;;
35257;SDS011;21385;50.878;8.050;2023-04-01T00:29:33;0.28;;;0.28;;
35257;SDS011;21385;50.878;8.050;2023-04-01T00:31:59;1.25;;;0.68;;
35257;SDS011;21385;50.878;8.050;2023-04-01T00:34:25;0.88;;;0.70;;
35257;SDS011;21385;50.878;8.050;2023-04-01T00:36:51;0.60;;;0.60;;
35257;SDS011;21385;50.878;8.050;2023-04-01T00:39:17;9.52;;;0.80;;
35257;SDS011;21385;50.878;8.050;2023-04-01T00:41:44;0.45;;;0.35;;
35257;SDS011;21385;50.878;8.050;2023-04-01T00:44:25;2.50;;;1.00;;
35257;SDS011;21385;50.878;8.050;2023-04-01T00:46:53;1.08;;;0.30;;
35257;SDS011;21385;50.878;8.050;2023-04-01T00:49:22;0.28;;;0.28;;
35257;SDS011;21385;50.878;8.050;2023-04-01T00:51:52;0.52;;;0.52;;
35257;SDS011;21385;50.878;8.050;2023-04-01T00:54:20;0.50;;;0.40;;
35257;SDS011;21385;50.878;8.050;2023-04-01T00:57:05;0.30;;;0.30;;
35257;SDS011;21385;50.878;8.050;2023-04-01T00:59:53;0.47;;;0.30;;
35257;SDS011;21385;50.878;8.050;2023-04-01T01:02:20;0.40;;;0.40;;
35257;SDS011;21385;50.878;8.050;2023-04-01T01:04:48;0.38;;;0.38;;
35257;SDS011;21385;50.878;8.050;2023-04-01T01:12:36;0.50;;;0.50;;
35257;SDS011;21385;50.878;8.050;2023-04-01T01:15:16;0.40;;;0.40;;
35257;SDS011;21385;50.878;8.050;2023-04-01T01:20:47;0.80;;;0.22;;
35257;SDS011;21385;50.878;8.050;2023-04-01T01:26:22;0.15;;;0.15;;
35257;SDS011;21385;50.878;8.050;2023-04-01T01:35:04;0.30;;;0.30;;
35257;SDS011;21385;50.878;8.050;2023-04-01T01:37:44;1.02;;;0.40;;
35257;SDS011;21385;50.878;8.050;2023-04-01T01:40:11;4.88;;;0.30;;
35257;SDS011;21385;50.878;8.050;2023-04-01T01:42:41;4.10;;;0.55;;
35257;SDS011;21385;50.878;8.050;2023-04-01T01:45:11;0.10;;;0.10;;
35257;SDS011;21385;50.878;8.050;2023-04-01T01:47:42;1.50;;;0.55;;
35257;SDS011;21385;50.878;8.050;2023-04-01T01:50:08;0.38;;;0.38;;
35257;SDS011;21385;50.878;8.050;2023-04-01T01:52:35;0.25;;;0.20;;
35257;SDS011;21385;50.878;8.050;2023-04-01T01:55:01;3.03;;;0.82;;
35257;SDS011;21385;50.878;8.050;2023-04-01T01:57:31;0.10;;;0.10;;
35257;SDS011;21385;50.878;8.050;2023-04-01T02:00:06;0.30;;;0.30;;
35257;SDS011;21385;50.878;8.050;2023-04-01T02:02:41;0.35;;;0.32;;
35257;SDS011;21385;50.878;8.050;2023-04-01T02:05:10;0.35;;;0.22;;
35257;SDS011;21385;50.878;8.050;2023-04-01T02:07:42;0.57;;;0.38;;
35257;SDS011;21385;50.878;8.050;2023-04-01T02:10:12;0.22;;;0.22;;
35257;SDS011;21385;50.878;8.050;2023-04-01T02:12:38;0.30;;;0.30;;
35257;SDS011;21385;50.878;8.050;2023-04-01T02:15:10;3.85;;;0.75;;
35257;SDS011;21385;50.878;8.050;2023-04-01T02:17:39;0.93;;;0.55;;
35257;SDS011;21385;50.878;8.050;2023-04-01T02:20:10;0.73;;;0.70;;
35257;SDS011;21385;50.878;8.050;2023-04-01T02:22:43;0.00;;;0.00;;
35257;SDS011;21385;50.878;8.050;2023-04-01T02:25:23;0.20;;;0.20;;
35257;SDS011;21385;50.878;8.050;2023-04-01T02:27:52;0.22;;;0.22;;
35257;SDS011;21385;50.878;8.050;2023-04-01T02:30:20;0.28;;;0.20;;
35257;SDS011;21385;50.878;8.050;2023-04-01T02:32:46;0.63;;;0.50;;
35257;SDS011;21385;50.878;8.050;2023-04-01T02:35:14;5.05;;;0.77;;
35257;SDS011;21385;50.878;8.050;2023-04-01T02:37:41;5.38;;;0.45;;
35257;SDS011;21385;50.878;8.050;2023-04-01T02:40:08;0.20;;;0.20;;
35257;SDS011;21385;50.878;8.050;2023-04-01T02:42:38;2.63;;;0.30;;
35257;SDS011;21385;50.878;8.050;2023-04-01T02:45:04;0.77;;;0.57;;
35257;SDS011;21385;50.878;8.050;2023-04-01T02:47:30;0.93;;;0.35;;
35257;SDS011;21385;50.878;8.050;2023-04-01T02:49:56;4.38;;;0.52;;
35257;SDS011;21385;50.878;8.050;2023-04-01T02:52:26;7.68;;;0.28;;
35257;SDS011;21385;50.878;8.050;2023-04-01T02:54:53;2.92;;;0.60;;
35257;SDS011;21385;50.878;8.050;2023-04-01T02:57:19;1.25;;;0.75;;
35257;SDS011;21385;50.878;8.050;2023-04-01T02:59:45;5.07;;;0.73;;
35257;SDS011;21385;50.878;8.050;2023-04-01T03:02:11;1.55;;;0.73;;
35257;SDS011;21385;50.878;8.050;2023-04-01T03:04:36;1.08;;;0.20;;
35257;SDS011;21385;50.878;8.050;2023-04-01T03:07:02;0.30;;;0.30;;
35257;SDS011;21385;50.878;8.050;2023-04-01T03:09:28;0.25;;;0.25;;
35257;SDS011;21385;50.878;8.050;2023-04-01T03:11:54;1.20;;;0.43;;
35257;SDS011;21385;50.878;8.050;2023-04-01T03:14:19;1.48;;;0.55;;
35257;SDS011;21385;50.878;8.050;2023-04-01T03:16:45;0.15;;;0.15;;
35257;SDS011;21385;50.878;8.050;2023-04-01T03:19:11;0.43;;;0.43;;
35257;SDS011;21385;50.878;8.050;2023-04-01T03:21:36;0.15;;;0.15;;
35257;SDS011;21385;50.878;8.050;2023-04-01T03:24:02;3.17;;;0.73;;
35257;SDS011;21385;50.878;8.050;2023-04-01T03:26:29;0.80;;;0.35;;
35257;SDS011;21385;50.878;8.050;2023-04-01T03:28:55;0.10;;;0.10;;
35257;SDS011;21385;50.878;8.050;2023-04-01T03:31:21;0.20;;;0.20;;
35257;SDS011;21385;50.878;8.050;2023-04-01T03:33:47;0.40;;;0.40;;
35257;SDS011;21385;50.878;8.050;2023-04-01T03:36:12;3.00;;;0.32;;
35257;SDS011;21385;50.878;8.050;2023-04-01T03:38:41;0.32;;;0.32;;
35257;SDS011;21385;50.878;8.050;2023-04-01T03:41:11;0.30;;;0.30;;
35257;SDS011;21385;50.878;8.050;2023-04-01T03:43:38;1.85;;;0.30;;
35257;SDS011;21385;50.878;8.050;2023-04-01T03:46:04;0.22;;;0.20;;
35257;SDS011;21385;50.878;8.050;2023-04-01T03:48:29;0.40;;;0.40;;
35257;SDS011;21385;50.878;8.050;2023-04-01T03:50:55;0.13;;;0.13;;
35257;SDS011;21385;50.878;8.050;2023-04-01T03:53:21;1.13;;;0.50;;
35257;SDS011;21385;50.878;8.050;2023-04-01T03:55:46;2.20;;;0.63;;
35257;SDS011;21385;50.878;8.050;2023-04-01T03:58:12;0.80;;;0.65;;
35257;SDS011;21385;50.878;8.050;2023-04-01T04:00:37;0.28;;;0.28;;
35257;SDS011;21385;50.878;8.050;2023-04-01T04:03:03;6.60;;;0.35;;
35257;SDS011;21385;50.878;8.050;2023-04-01T04:05:30;0.10;;;0.10;;
35257;SDS011;21385;50.878;8.050;2023-04-01T04:07:56;0.30;;;0.30;;
35257;SDS011;21385;50.878;8.050;2023-04-01T04:10:21;0.35;;;0.35;;
35257;SDS011;21385;50.878;8.050;2023-04-01T04:12:49;0.40;;;0.25;;
35257;SDS011;21385;50.878;8.050;2023-04-01T04:15:14;0.45;;;0.35;;
35257;SDS011;21385;50.878;8.050;2023-04-01T04:17:40;0.45;;;0.45;;
35257;SDS011;21385;50.878;8.050;2023-04-01T04:20:06;0.10;;;0.10;;
35257;SDS011;21385;50.878;8.050;2023-04-01T04:22:33;0.32;;;0.17;;
35257;SDS011;21385;50.878;8.050;2023-04-01T04:24:58;0.20;;;0.20;;
35257;SDS011;21385;50.878;8.050;2023-04-01T04:27:24;0.30;;;0.30;;
35257;SDS011;21385;50.878;8.050;2023-04-01T04:29:50;0.40;;;0.32;;
35257;SDS011;21385;50.878;8.050;2023-04-01T04:32:15;1.75;;;0.30;;
35257;SDS011;21385;50.878;8.050;2023-04-01T04:34:41;1.35;;;0.28;;
35257;SDS011;21385;50.878;8.050;2023-04-01T04:37:06;0.10;;;0.10;;
35257;SDS011;21385;50.878;8.050;2023-04-01T04:39:32;0.17;;;0.17;;
35257;SDS011;21385;50.878;8.050;2023-04-01T04:41:57;0.10;;;0.10;;
35257;SDS011;21385;50.878;8.050;2023-04-01T04:44:23;0.10;;;0.10;;
35257;SDS011;21385;50.878;8.050;2023-04-01T04:46:49;0.45;;;0.28;;
35257;SDS011;21385;50.878;8.050;2023-04-01T04:49:14;0.75;;;0.20;;
35257;SDS011;21385;50.878;8.050;2023-04-01T04:51:40;0.10;;;0.10;;
35257;SDS011;21385;50.878;8.050;2023-04-01T04:54:06;1.73;;;0.80;;
35257;SDS011;21385;50.878;8.050;2023-04-01T04:56:32;0.30;;;0.22;;
35257;SDS011;21385;50.878;8.050;2023-04-01T04:58:58;0.10;;;0.10;;
35257;SDS011;21385;50.878;8.050;2023-04-01T05:01:24;0.20;;;0.20;;
35257;SDS011;21385;50.878;8.050;2023-04-01T05:03:50;0.20;;;0.20;;
35257;SDS011;21385;50.878;8.050;2023-04-01T05:06:16;0.57;;;0.30;;
35257;SDS011;21385;50.878;8.050;2023-04-01T05:08:43;0.40;;;0.40;;
35257;SDS011;21385;50.878;8.050;2023-04-01T05:11:10;1.75;;;0.45;;
35257;SDS011;21385;50.878;8.050;2023-04-01T05:13:39;0.28;;;0.28;;
35257;SDS011;21385;50.878;8.050;2023-04-01T05:16:07;1.02;;;0.25;;
35257;SDS011;21385;50.878;8.050;2023-04-01T05:18:34;0.20;;;0.20;;
35257;SDS011;21385;50.878;8.050;2023-04-01T05:20:59;0.40;;;0.40;;
35257;SDS011;21385;50.878;8.050;2023-04-01T05:23:25;0.47;;;0.30;;
35257;SDS011;21385;50.878;8.050;2023-04-01T05:25:51;0.25;;;0.25;;
35257;SDS011;21385;50.878;8.050;2023-04-01T05:28:17;0.28;;;0.28;;
35257;SDS011;21385;50.878;8.050;2023-04-01T05:30:44;1.38;;;0.38;;
35257;SDS011;21385;50.878;8.050;2023-04-01T05:33:10;0.10;;;0.10;;
35257;SDS011;21385;50.878;8.050;2023-04-01T05:35:37;0.52;;;0.38;;
35257;SDS011;21385;50.878;8.050;2023-04-01T05:38:03;0.25;;;0.20;;
35257;SDS011;21385;50.878;8.050;2023-04-01T05:40:29;1.20;;;0.52;;
35257;SDS011;21385;50.878;8.050;2023-04-01T05:42:55;0.20;;;0.20;;
35257;SDS011;21385;50.878;8.050;2023-04-01T05:45:21;0.30;;;0.30;;
35257;SDS011;21385;50.878;8.050;2023-04-01T05:47:47;0.30;;;0.30;;
35257;SDS011;21385;50.878;8.050;2023-04-01T05:50:12;0.10;;;0.10;;
35257;SDS011;21385;50.878;8.050;2023-04-01T05:52:38;0.10;;;0.10;;
35257;SDS011;21385;50.878;8.050;2023-04-01T05:55:04;0.10;;;0.10;;
35257;SDS011;21385;50.878;8.050;2023-04-01T05:57:30;0.17;;;0.17;;
35257;SDS011;21385;50.878;8.050;2023-04-01T05:59:56;1.27;;;0.55;;
35257;SDS011;21385;50.878;8.050;2023-04-01T06:02:22;0.10;;;0.10;;
35257;SDS011;21385;50.878;8.050;2023-04-01T06:04:48;3.50;;;0.85;;
35257;SDS011;21385;50.878;8.050;2023-04-01T06:07:14;0.20;;;0.20;;
35257;SDS011;21385;50.878;8.050;2023-04-01T06:09:42;0.20;;;0.20;;
35257;SDS011;21385;50.878;8.050;2023-04-01T06:23:13;0.00;;;0.00;;
35257;SDS011;21385;50.878;8.050;2023-04-01T06:28:47;1.15;;;0.50;;
35257;SDS011;21385;50.878;8.050;2023-04-01T06:42:38;0.65;;;0.32;;
35257;SDS011;21385;50.878;8.050;2023-04-01T06:47:58;0.35;;;0.30;;
35257;SDS011;21385;50.878;8.050;2023-04-01T06:50:47;0.10;;;0.10;;
35257;SDS011;21385;50.878;8.050;2023-04-01T06:53:35;5.57;;;0.50;;
35257;SDS011;21385;50.878;8.050;2023-04-01T06:56:20;0.08;;;0.08;;
35257;SDS011;21385;50.878;8.050;2023-04-01T06:58:56;0.10;;;0.10;;
35257;SDS011;21385;50.878;8.050;2023-04-01T07:04:06;5.47;;;0.28;;
35257;SDS011;21385;50.878;8.050;2023-04-01T07:06:50;0.70;;;0.30;;
35257;SDS011;21385;50.878;8.050;2023-04-01T07:09:37;2.17;;;0.10;;
35257;SDS011;21385;50.878;8.050;2023-04-01T07:12:11;0.00;;;0.00;;
35257;SDS011;21385;50.878;8.050;2023-04-01T07:14:48;0.00;;;0.00;;
35257;SDS011;21385;50.878;8.050;2023-04-01T07:17:20;0.10;;;0.10;;
35257;SDS011;21385;50.878;8.050;2023-04-01T07:22:46;0.30;;;0.30;;
35257;SDS011;21385;50.878;8.050;2023-04-01T07:25:19;0.65;;;0.10;;
35257;SDS011;21385;50.878;8.050;2023-04-01T07:27:47;0.00;;;0.00;;
35257;SDS011;21385;50.878;8.050;2023-04-01T07:30:20;0.00;;;0.00;;
35257;SDS011;21385;50.878;8.050;2023-04-01T07:32:51;0.00;;;0.00;;
35257;SDS011;21385;50.878;8.050;2023-04-01T07:35:40;0.10;;;0.10;;
35257;SDS011;21385;50.878;8.050;2023-04-01T07:44:08;0.10;;;0.10;;
35257;SDS011;21385;50.878;8.050;2023-04-01T07:54:23;1.00;;;0.30;;
35257;SDS011;21385;50.878;8.050;2023-04-01T08:05:25;0.20;;;0.20;;
35257;SDS011;21385;50.878;8.050;2023-04-01T08:10:27;0.00;;;0.00;;
35257;SDS011;21385;50.878;8.050;2023-04-01T08:16:08;1.02;;;0.15;;
35257;SDS011;21385;50.878;8.050;2023-04-01T08:21:21;0.10;;;0.10;;
35257;SDS011;21385;50.878;8.050;2023-04-01T08:26:59;0.28;;;0.28;;
35257;SDS011;21385;50.878;8.050;2023-04-01T08:29:36;0.25;;;0.25;;
35257;SDS011;21385;50.878;8.050;2023-04-01T08:32:22;0.20;;;0.20;;
35257;SDS011;21385;50.878;8.050;2023-04-01T08:35:07;0.20;;;0.20;;
35257;SDS011;21385;50.878;8.050;2023-04-01T08:37:35;0.13;;;0.10;;
35257;SDS011;21385;50.878;8.050;2023-04-01T08:59:13;0.05;;;0.05;;
35257;SDS011;21385;50.878;8.050;2023-04-01T09:07:53;3.90;;;0.47;;
35257;SDS011;21385;50.878;8.050;2023-04-01T09:25:45;0.20;;;0.20;;
35257;SDS011;21385;50.878;8.050;2023-04-01T09:30:34;0.10;;;0.10;;
35257;SDS011;21385;50.878;8.050;2023-04-01T09:35:47;0.25;;;0.25;;
35257;SDS011;21385;50.878;8.050;2023-04-01T09:54:48;0.73;;;0.38;;
35257;SDS011;21385;50.878;8.050;2023-04-01T09:57:14;0.20;;;0.20;;
35257;SDS011;21385;50.878;8.050;2023-04-01T10:00:17;0.52;;;0.20;;
35257;SDS011;21385;50.878;8.050;2023-04-01T10:18:32;0.17;;;0.17;;
35257;SDS011;21385;50.878;8.050;2023-04-01T10:33:02;0.20;;;0.20;;
35257;SDS011;21385;50.878;8.050;2023-04-01T10:59:11;3.30;;;0.50;;
35257;SDS011;21385;50.878;8.050;2023-04-01T11:30:41;0.20;;;0.20;;
35257;SDS011;21385;50.878;8.050;2023-04-01T12:03:07;0.77;;;0.40;;
35257;SDS011;21385;50.878;8.050;2023-04-01T12:10:56;0.40;;;0.40;;
35257;SDS011;21385;50.878;8.050;2023-04-01T12:25:05;0.20;;;0.20;;
35257;SDS011;21385;50.878;8.050;2023-04-01T12:28:05;0.38;;;0.38;;
35257;SDS011;21385;50.878;8.050;2023-04-01T12:44:33;0.80;;;0.80;;
35257;SDS011;21385;50.878;8.050;2023-04-01T12:52:54;1.80;;;0.52;;
35257;SDS011;21385;50.878;8.050;2023-04-01T13:09:28;0.38;;;0.30;;
35257;SDS011;21385;50.878;8.050;2023-04-01T13:17:16;0.55;;;0.55;;
35257;SDS011;21385;50.878;8.050;2023-04-01T13:20:02;0.47;;;0.47;;
35257;SDS011;21385;50.878;8.050;2023-04-01T13:27:44;0.88;;;0.88;;
35257;SDS011;21385;50.878;8.050;2023-04-01T13:58:20;0.43;;;0.43;;
35257;SDS011;21385;50.878;8.050;2023-04-01T14:17:31;0.55;;;0.55;;
35257;SDS011;21385;50.878;8.050;2023-04-01T14:20:36;0.52;;;0.50;;
35257;SDS011;21385;50.878;8.050;2023-04-01T14:35:04;0.50;;;0.50;;
35257;SDS011;21385;50.878;8.050;2023-04-01T14:37:56;5.53;;;1.73;;
35257;SDS011;21385;50.878;8.050;2023-04-01T14:51:55;0.73;;;0.70;;
35257;SDS011;21385;50.878;8.050;2023-04-01T14:54:47;0.43;;;0.43;;
35257;SDS011;21385;50.878;8.050;2023-04-01T14:57:16;1.55;;;0.55;;
35257;SDS011;21385;50.878;8.050;2023-04-01T14:59:59;0.95;;;0.93;;
35257;SDS011;21385;50.878;8.050;2023-04-01T15:25:05;0.40;;;0.40;;
35257;SDS011;21385;50.878;8.050;2023-04-01T15:27:59;1.00;;;0.47;;
35257;SDS011;21385;50.878;8.050;2023-04-01T15:33:36;0.75;;;0.75;;
35257;SDS011;21385;50.878;8.050;2023-04-01T15:36:24;0.47;;;0.40;;
35257;SDS011;21385;50.878;8.050;2023-04-01T15:41:39;0.47;;;0.47;;
35257;SDS011;21385;50.878;8.050;2023-04-01T15:49:57;0.82;;;0.60;;
35257;SDS011;21385;50.878;8.050;2023-04-01T15:56:23;0.65;;;0.45;;
35257;SDS011;21385;50.878;8.050;2023-04-01T16:02:01;0.40;;;0.40;;
35257;SDS011;21385;50.878;8.050;2023-04-01T16:07:21;1.00;;;0.90;;
35257;SDS011;21385;50.878;8.050;2023-04-01T16:20:50;0.75;;;0.70;;
35257;SDS011;21385;50.878;8.050;2023-04-01T16:29:40;0.73;;;0.50;;
35257;SDS011;21385;50.878;8.050;2023-04-01T16:32:18;0.45;;;0.43;;
35257;SDS011;21385;50.878;8.050;2023-04-01T16:39:08;2.30;;;0.88;;
35257;SDS011;21385;50.878;8.050;2023-04-01T16:41:19;0.50;;;0.50;;
35257;SDS011;21385;50.878;8.050;2023-04-01T16:43:56;0.60;;;0.60;;
35257;SDS011;21385;50.878;8.050;2023-04-01T16:46:41;0.55;;;0.35;;
35257;SDS011;21385;50.878;8.050;2023-04-01T16:54:28;1.40;;;0.70;;
35257;SDS011;21385;50.878;8.050;2023-04-01T16:56:55;0.60;;;0.60;;
35257;SDS011;21385;50.878;8.050;2023-04-01T16:59:28;0.50;;;0.47;;
35257;SDS011;21385;50.878;8.050;2023-04-01T17:02:04;0.73;;;0.73;;
35257;SDS011;21385;50.878;8.050;2023-04-01T17:07:20;0.88;;;0.88;;
35257;SDS011;21385;50.878;8.050;2023-04-01T17:09:57;3.23;;;0.80;;
35257;SDS011;21385;50.878;8.050;2023-04-01T17:20:43;0.73;;;0.73;;
35257;SDS011;21385;50.878;8.050;2023-04-01T17:23:29;0.80;;;0.80;;
35257;SDS011;21385;50.878;8.050;2023-04-01T17:25:59;1.45;;;0.93;;
35257;SDS011;21385;50.878;8.050;2023-04-01T17:28:50;0.80;;;0.80;;
35257;SDS011;21385;50.878;8.050;2023-04-01T17:43:12;0.85;;;0.85;;
35257;SDS011;21385;50.878;8.050;2023-04-01T17:51:37;2.00;;;1.67;;
35257;SDS011;21385;50.878;8.050;2023-04-01T18:13:59;2.58;;;1.10;;
35257;SDS011;21385;50.878;8.050;2023-04-01T18:21:50;1.00;;;0.88;;
35257;SDS011;21385;50.878;8.050;2023-04-01T18:27:04;1.60;;;1.50;;
35257;SDS011;21385;50.878;8.050;2023-04-01T18:29:53;1.95;;;1.35;;
35257;SDS011;21385;50.878;8.050;2023-04-01T18:38:00;3.63;;;1.58;;
35257;SDS011;21385;50.878;8.050;2023-04-01T18:45:57;2.45;;;1.38;;
35257;SDS011;21385;50.878;8.050;2023-04-01T18:51:25;1.63;;;1.45;;
35257;SDS011;21385;50.878;8.050;2023-04-01T18:54:21;1.20;;;1.15;;
35257;SDS011;21385;50.878;8.050;2023-04-01T18:56:51;0.65;;;0.65;;
35257;SDS011;21385;50.878;8.050;2023-04-01T18:59:39;1.17;;;1.00;;
35257;SDS011;21385;50.878;8.050;2023-04-01T19:07:42;3.30;;;1.65;;
35257;SDS011;21385;50.878;8.050;2023-04-01T19:15:44;4.03;;;1.52;;
35257;SDS011;21385;50.878;8.050;2023-04-01T19:26:51;1.10;;;1.02;;
35257;SDS011;21385;50.878;8.050;2023-04-01T19:40:11;1.33;;;1.00;;
35257;SDS011;21385;50.878;8.050;2023-04-01T19:45:36;0.68;;;0.68;;
35257;SDS011;21385;50.878;8.050;2023-04-01T19:48:07;1.33;;;1.17;;
35257;SDS011;21385;50.878;8.050;2023-04-01T19:53:04;0.35;;;0.35;;
35257;SDS011;21385;50.878;8.050;2023-04-01T19:55:47;1.95;;;1.20;;
35257;SDS011;21385;50.878;8.050;2023-04-01T20:04:42;3.55;;;1.33;;
35257;SDS011;21385;50.878;8.050;2023-04-01T20:07:00;1.52;;;1.27;;
35257;SDS011;21385;50.878;8.050;2023-04-01T20:14:59;1.80;;;1.45;;
35257;SDS011;21385;50.878;8.050;2023-04-01T20:20:13;1.63;;;1.15;;
35257;SDS011;21385;50.878;8.050;2023-04-01T20:25:20;1.30;;;0.88;;
35257;SDS011;21385;50.878;8.050;2023-04-01T20:27:56;1.17;;;1.08;;
35257;SDS011;21385;50.878;8.050;2023-04-01T20:45:13;3.22;;;0.93;;
35257;SDS011;21385;50.878;8.050;2023-04-01T20:48:09;1.08;;;0.70;;
35257;SDS011;21385;50.878;8.050;2023-04-01T20:50:54;1.92;;;1.65;;
35257;SDS011;21385;50.878;8.050;2023-04-01T20:56:29;2.30;;;1.73;;
35257;SDS011;21385;50.878;8.050;2023-04-01T21:07:28;1.98;;;1.83;;
35257;SDS011;21385;50.878;8.050;2023-04-01T21:12:53;2.38;;;1.85;;
35257;SDS011;21385;50.878;8.050;2023-04-01T21:15:29;1.92;;;1.80;;
35257;SDS011;21385;50.878;8.050;2023-04-01T21:32:27;1.38;;;1.27;;
35257;SDS011;21385;50.878;8.050;2023-04-01T21:37:57;1.80;;;1.42;;
35257;SDS011;21385;50.878;8.050;2023-04-01T21:46:40;1.30;;;1.20;;
35257;SDS011;21385;50.878;8.050;2023-04-01T21:50:02;1.95;;;1.33;;
35257;SDS011;21385;50.878;8.050;2023-04-01T22:03:46;1.80;;;1.45;;
35257;SDS011;21385;50.878;8.050;2023-04-01T22:14:31;1.27;;;1.17;;
35257;SDS011;21385;50.878;8.050;2023-04-01T22:17:31;1.30;;;1.05;;
35257;SDS011;21385;50.878;8.050;2023-04-01T22:23:54;2.70;;;2.05;;
35257;SDS011;21385;50.878;8.050;2023-04-01T22:26:15;1.97;;;1.53;;
35257;SDS011;21385;50.878;8.050;2023-04-01T22:31:11;1.40;;;1.20;;
35257;SDS011;21385;50.878;8.050;2023-04-01T22:33:51;12.13;;;1.73;;
35257;SDS011;21385;50.878;8.050;2023-04-01T22:37:10;1.88;;;1.27;;
35257;SDS011;21385;50.878;8.050;2023-04-01T22:52:41;1.55;;;1.45;;
35257;SDS011;21385;50.878;8.050;2023-04-01T22:55:15;1.30;;;1.02;;
35257;SDS011;21385;50.878;8.050;2023-04-01T22:57:44;2.30;;;1.60;;
35257;SDS011;21385;50.878;8.050;2023-04-01T23:00:21;1.27;;;1.17;;
35257;SDS011;21385;50.878;8.050;2023-04-01T23:05:25;1.88;;;0.85;;
35257;SDS011;21385;50.878;8.050;2023-04-01T23:08:03;0.77;;;0.77;;
35257;SDS011;21385;50.878;8.050;2023-04-01T23:10:52;2.17;;;0.77;;
35257;SDS011;21385;50.878;8.050;2023-04-01T23:13:26;1.00;;;0.93;;
35257;SDS011;21385;50.878;8.050;2023-04-01T23:16:17;0.60;;;0.60;;
35257;SDS011;21385;50.878;8.050;2023-04-01T23:21:39;1.10;;;1.00;;
35257;SDS011;21385;50.878;8.050;2023-04-01T23:24:19;2.30;;;0.88;;
35257;SDS011;21385;50.878;8.050;2023-04-01T23:27:00;1.55;;;0.93;;
35257;SDS011;21385;50.878;8.050;2023-04-01T23:29:35;5.78;;;1.38;;
35257;SDS011;21385;50.878;8.050;2023-04-01T23:32:03;0.98;;;0.88;;
35257;SDS011;21385;50.878;8.050;2023-04-01T23:34:31;1.33;;;1.25;;
35257;SDS011;21385;50.878;8.050;2023-04-01T23:36:59;0.60;;;0.60;;
35257;SDS011;21385;50.878;8.050;2023-04-01T23:39:29;1.23;;;1.13;;
35257;SDS011;21385;50.878;8.050;2023-04-01T23:42:19;2.20;;;0.85;;
35257;SDS011;21385;50.878;8.050;2023-04-01T23:44:50;1.15;;;1.08;;
35257;SDS011;21385;50.878;8.050;2023-04-01T23:47:26;0.90;;;0.68;;
35257;SDS011;21385;50.878;8.050;2023-04-01T23:50:22;1.00;;;0.88;;
35257;SDS011;21385;50.878;8.050;2023-04-01T23:55:25;1.58;;;1.17;;
